SondeTracker

Meteorological Radiosondes Database

Operations

Sounding was ended - last measurement: 2022-12-05 23:42:27z

MAP
About Radiosonde

Number: U3534518

Launch Site: Shearwater [NS] (CA)

Type: RS41

AUX: NO

Frequency: 402.001 MHz

Max Speed: 85 km/h at 8093 m

Average Speed: 42.57 km/h

Max Altitude: 8093 m

Average Ascent Speed: 4.96 m/s

Average Descent Speed: 0.00 m/s

Status: LOST

Status Changes
Launch Site Type AUX Frequency Status Finder Landing Point Description Changes made by
MHz LOST 0, 0 AUTO STATUS: Probably lost in the water [BOT]AUTO-STATUS - 2022-12-06 00:51:24z
APRS Statistics

Received Frames: 37

First Frame [UTC]: 2022-12-05 23:19:14z

Last Frame [UTC]: 2022-12-05 23:42:27z

Receivers: VE1RUS

Flight Time: 00:23:13 h

Distance From First Measurement: 16.19 km

Nearest City: [0.00 km]

Nearest Hunter: VE1DAY [15.23 km]

Ground Altitude: -123 m

Distance from QTH: 0.00 km

APRS Data
Receiver Number Date/Time [UTC] φ λ Course [°] Speed [km/h] Altitude [m] Description
VE1RUSU35345182022-12-05 23:42:2744.6809-63.316853858093Clb=6.9m/s t=-43.6C h=36.0% p=-1.0hPa 402.001 MHz Type=RS41-SG ser=U3534518 Radiosonde
VE1RUSU35345182022-12-05 23:41:2444.6747-63.332158817738Clb=3.8m/s t=-40.5C h=25.1% p=-1.0hPa 402.001 MHz Type=RS41-SG ser=U3534518 Radiosonde
VE1RUSU35345182022-12-05 23:39:5744.6705-63.343564697456Clb=3.7m/s t=-38.0C h=21.1% p=-1.0hPa 402.001 MHz Type=RS41-SG ser=U3534518 Radiosonde
VE1RUSU35345182022-12-05 23:39:2544.6681-63.350758767296Clb=3.8m/s t=-36.5C h=19.0% p=-1.0hPa 402.001 MHz Type=RS41-SG ser=U3534518 Radiosonde
VE1RUSU35345182022-12-05 23:38:5544.6664-63.354961677204Clb=7.6m/s t=-35.6C h=18.1% p=-1.0hPa 402.001 MHz Type=RS41-SG ser=U3534518 Radiosonde
VE1RUSU35345182022-12-05 23:38:2344.6642-63.360953697048Clb=5.2m/s t=-34.3C h=19.5% p=-1.0hPa 402.001 MHz Type=RS41-SG ser=U3534518 Radiosonde
VE1RUSU35345182022-12-05 23:37:5444.6591-63.376968636656Clb=3.8m/s t=-31.0C h=19.9% p=-1.0hPa 402.001 MHz Type=RS41-SG ser=U3534518 Radiosonde
VE1RUSU35345182022-12-05 23:37:1344.6582-63.381975566548Clb=3.5m/s t=-30.1C h=19.5% p=-1.0hPa 402.001 MHz Type=RS41-SG ser=U3534518 Radiosonde
VE1RUSU35345182022-12-05 23:35:1744.6523-63.403174466022Clb=5.5m/s t=-25.9C h=16.3% p=-1.0hPa 402.001 MHz Type=RS41-SG ser=U3534518 Radiosonde
VE1RUSU35345182022-12-05 23:34:4644.6511-63.40767465895Clb=4.7m/s t=-24.8C h=14.0% p=-1.0hPa 402.001 MHz Type=RS41-SG ser=U3534518 Radiosonde
VE1RUSU35345182022-12-05 23:33:3344.6475-63.425483545364Clb=4.6m/s t=-20.4C h=7.7% p=-1.0hPa 402.001 MHz Type=RS41-SG ser=U3534518 Radiosonde
VE1RUSU35345182022-12-05 23:32:5544.6477-63.428680635274Clb=6.6m/s t=-19.7C h=7.2% p=-1.0hPa 402.001 MHz Type=RS41-SG ser=U3534518 Radiosonde
VE1RUSU35345182022-12-05 23:32:1244.6475-63.432179395171Clb=3.4m/s t=-19.0C h=7.6% p=-1.0hPa 402.001 MHz Type=RS41-SG ser=U3534518 Radiosonde
VE1RUSU35345182022-12-05 23:31:4044.6485-63.442390464891Clb=4.9m/s t=-17.1C h=7.1% p=-1.0hPa 402.001 MHz Type=RS41-SG ser=U3534518 Radiosonde
VE1RUSU35345182022-12-05 23:31:0944.6488-63.445184504813Clb=5.3m/s t=-17.0C h=8.4% p=-1.0hPa 402.001 MHz Type=RS41-SG ser=U3534518 Radiosonde
VE1RUSU35345182022-12-05 23:30:3744.6488-63.449877444670Clb=5.5m/s t=-16.5C h=15.4% p=-1.0hPa 402.001 MHz Type=RS41-SG ser=U3534518 Radiosonde
VE1RUSU35345182022-12-05 23:30:0744.6484-63.454674394494Clb=5.9m/s t=-15.2C h=12.0% p=-1.0hPa 402.001 MHz Type=RS41-SG ser=U3534518 Radiosonde
VE1RUSU35345182022-12-05 23:29:3544.6483-63.459771334272Clb=5.8m/s t=-13.9C h=13.3% p=-1.0hPa 402.001 MHz Type=RS41-SG ser=U3534518 Radiosonde
VE1RUSU35345182022-12-05 23:29:1444.648-63.461957224152Clb=7.2m/s t=-13.0C h=17.0% p=-1.0hPa 402.001 MHz Type=RS41-SG ser=U3534518 Radiosonde
VE1RUSU35345182022-12-05 23:28:4144.6475-63.464691263983Clb=5.7m/s t=-11.8C h=22.0% p=-1.0hPa 402.001 MHz Type=RS41-SG ser=U3534518 Radiosonde
VE1RUSU35345182022-12-05 23:28:0244.6468-63.468449243751Clb=7.1m/s t=-10.2C h=22.3% p=-1.0hPa 402.001 MHz Type=RS41-SG ser=U3534518 Radiosonde
VE1RUSU35345182022-12-05 23:27:3144.6465-63.471188333626Clb=4.8m/s t=-9.5C h=22.7% p=-1.0hPa 402.001 MHz Type=RS41-SG ser=U3534518 Radiosonde
VE1RUSU35345182022-12-05 23:27:0044.6462-63.474391393492Clb=3.9m/s t=-8.8C h=26.6% p=-1.0hPa 402.001 MHz Type=RS41-SG ser=U3534518 Radiosonde
VE1RUSU35345182022-12-05 23:26:2944.6462-63.480274393293Clb=4.9m/s t=-8.0C h=30.7% p=-1.0hPa 402.001 MHz Type=RS41-SG ser=U3534518 Radiosonde
VE1RUSU35345182022-12-05 23:25:5844.6464-63.4835112443184Clb=5.3m/s t=-7.3C h=32.0% p=-1.0hPa 402.001 MHz Type=RS41-SG ser=U3534518 Radiosonde
VE1RUSU35345182022-12-05 23:25:2744.6469-63.4888101503009Clb=4.0m/s t=-6.4C h=38.5% p=-1.0hPa 402.001 MHz Type=RS41-SG ser=U3534518 Radiosonde
VE1RUSU35345182022-12-05 23:25:0044.6471-63.494388262797Clb=5.3m/s t=-5.0C h=34.3% p=-1.0hPa 402.001 MHz Type=RS41-SG ser=U3534518 Radiosonde
VE1RUSU35345182022-12-05 23:24:2844.647-63.495896392728Clb=5.0m/s t=-4.5C h=37.2% p=-1.0hPa 402.001 MHz Type=RS41-SG ser=U3534518 Radiosonde
VE1RUSU35345182022-12-05 23:23:5344.647-63.499272282580Clb=4.8m/s t=-3.4C h=38.9% p=-1.0hPa 402.001 MHz Type=RS41-SG ser=U3534518 Radiosonde
VE1RUSU35345182022-12-05 23:22:5144.6459-63.504861222281Clb=4.8m/s t=-1.9C h=28.0% p=-1.0hPa 402.001 MHz Type=RS41-SG ser=U3534518 Radiosonde
VE1RUSU35345182022-12-05 23:22:2044.645-63.5068272068Clb=4.2m/s t=-1.6C h=29.8% p=-1.0hPa 402.001 MHz Type=RS41-SG ser=U3534518 Radiosonde
VE1RUSU35345182022-12-05 23:21:4944.6439-63.507429301953Clb=4.6m/s t=-0.9C h=29.0% p=-1.0hPa 402.001 MHz Type=RS41-SG ser=U3534518 Radiosonde
VE1RUSU35345182022-12-05 23:21:1844.6418-63.508214351794Clb=4.0m/s t=-0.3C h=10.9% p=-1.0hPa 402.001 MHz Type=RS41-SG ser=U3534518 Radiosonde
VE1RUSU35345182022-12-05 23:20:4844.6393-63.509411331628Clb=5.2m/s t=0.4C h=11.3% p=-1.0hPa 402.001 MHz Type=RS41-SG ser=U3534518 Radiosonde
VE1RUSU35345182022-12-05 23:20:1644.638-63.510753241488Clb=4.9m/s t=0.0C h=15.3% p=-1.0hPa 402.001 MHz Type=RS41-SG ser=U3534518 Radiosonde
VE1RUSU35345182022-12-05 23:19:4544.6366-63.5119347221333Clb=6.4m/s t=-1.6C h=-1.0% p=-1.0hPa 402.001 MHz Type=RS41-SG ser=U3534518 Radiosonde
VE1RUSU35345182022-12-05 23:19:1444.6361-63.511629461177Clb=5.4m/s t=-273.0C h=-1.0% p=-1.0hPa 402.001 MHz Type=RS41 ser=U3534518 Radiosonde